Time;durP1;ratioP1;P1;durP2;ratioP2;P2;SDS_P1;SDS_P2;PMS_P1;PMS_P2;Temp;Humidity;BMP_temperature;BMP_pressure;BME280_temperature;BME280_humidity;BME280_pressure;Samples;Min_cycle;Max_cycle;Signal;HPM_P1;HPM_P2
2021/09/02 00:00:02;;;;;;;9.53;5.23;;;12.90;99.90;;;;;;5070789;28;20505;-71
2021/09/02 00:02:29;;;;;;;9.57;6.10;;;12.90;99.90;;;;;;5061899;28;21044;-68
2021/09/02 00:04:56;;;;;;;13.20;6.83;;;12.90;99.90;;;;;;5051583;28;20500;-71
2021/09/02 00:07:23;;;;;;;9.90;5.23;;;12.90;99.90;;;;;;5053734;28;20558;-71
2021/09/02 00:09:50;;;;;;;13.07;6.43;;;12.90;99.90;;;;;;5057008;28;20470;-71
2021/09/02 00:12:17;;;;;;;14.67;5.40;;;13.00;99.90;;;;;;5059602;28;20478;-71
2021/09/02 00:14:44;;;;;;;10.90;5.90;;;12.90;99.90;;;;;;5057058;28;20512;-70
2021/09/02 00:17:12;;;;;;;16.17;5.93;;;12.80;99.90;;;;;;5053155;28;20443;-70
2021/09/02 00:19:39;;;;;;;16.50;6.43;;;12.80;99.90;;;;;;5053866;28;20680;-71
2021/09/02 00:22:07;;;;;;;5.63;4.80;;;12.80;99.90;;;;;;5062660;28;20561;-70
2021/09/02 00:24:34;;;;;;;13.77;5.37;;;12.70;99.90;;;;;;5055154;28;20545;-70
2021/09/02 00:27:01;;;;;;;11.23;5.50;;;12.70;99.90;;;;;;5052335;28;20497;-71
2021/09/02 00:29:28;;;;;;;9.53;4.90;;;12.60;99.90;;;;;;5066616;28;20486;-70
2021/09/02 00:31:55;;;;;;;11.30;5.03;;;12.60;99.90;;;;;;5059221;28;20553;-70
2021/09/02 00:34:23;;;;;;;9.97;6.07;;;12.70;99.90;;;;;;5058132;28;20538;-71
2021/09/02 00:36:50;;;;;;;9.57;5.67;;;12.60;99.90;;;;;;5062517;28;20459;-71
2021/09/02 00:39:17;;;;;;;13.27;4.30;;;12.60;99.90;;;;;;5053758;28;20478;-71
2021/09/02 00:41:44;;;;;;;9.90;4.93;;;12.60;99.90;;;;;;5059218;28;20523;-70
2021/09/02 00:44:11;;;;;;;5.90;4.07;;;12.50;99.90;;;;;;5063775;28;20460;-70
2021/09/02 00:46:38;;;;;;;8.73;4.33;;;12.50;99.90;;;;;;5067190;28;20549;-71
2021/09/02 00:49:05;;;;;;;11.50;4.57;;;12.50;99.90;;;;;;5057898;28;20466;-71
2021/09/02 00:51:33;;;;;;;10.07;4.17;;;12.50;99.90;;;;;;5054782;28;20450;-71
2021/09/02 00:54:01;;;;;;;10.03;7.37;;;12.40;99.90;;;;;;5058526;28;20466;-70
2021/09/02 00:56:28;;;;;;;14.23;5.40;;;12.40;99.90;;;;;;5056578;28;20496;-71
2021/09/02 00:58:55;;;;;;;18.63;5.07;;;12.40;99.90;;;;;;5065663;28;20482;-71
2021/09/02 01:01:22;;;;;;;9.57;4.40;;;12.40;99.90;;;;;;5061250;28;20450;-70
2021/09/02 01:03:49;;;;;;;6.63;4.23;;;12.40;99.90;;;;;;5053253;28;20459;-71
2021/09/02 01:06:17;;;;;;;10.87;3.60;;;12.40;99.90;;;;;;5048973;28;20836;-70
2021/09/02 01:08:46;;;;;;;6.43;3.93;;;12.40;99.90;;;;;;5064028;28;20486;-70
2021/09/02 01:11:14;;;;;;;7.10;4.20;;;12.40;99.90;;;;;;5060010;28;20479;-71
2021/09/02 01:13:41;;;;;;;8.03;4.10;;;12.40;99.90;;;;;;5059613;28;20542;-71
2021/09/02 01:16:08;;;;;;;7.10;4.60;;;12.40;99.90;;;;;;5051023;28;20560;-71
2021/09/02 01:18:35;;;;;;;6.30;3.47;;;12.30;99.90;;;;;;5058769;28;20577;-70
2021/09/02 01:21:02;;;;;;;7.50;3.80;;;12.30;99.90;;;;;;5055189;28;20880;-71
2021/09/02 01:23:35;;;;;;;9.10;4.70;;;12.40;99.90;;;;;;5055990;28;20550;-70
2021/09/02 01:26:13;;;;;;;10.53;4.77;;;12.40;99.90;;;;;;5058854;28;20548;-71
2021/09/02 01:28:40;;;;;;;5.20;4.33;;;12.20;99.90;;;;;;5061279;28;20973;-70
2021/09/02 01:31:07;;;;;;;8.50;3.30;;;12.10;99.90;;;;;;5056975;28;20489;-71
2021/09/02 01:33:34;;;;;;;3.93;3.50;;;12.00;99.90;;;;;;5057940;28;20469;-70
2021/09/02 01:36:00;;;;;;;5.63;4.13;;;12.10;99.90;;;;;;5051936;28;20478;-70
2021/09/02 01:38:30;;;;;;;9.13;4.00;;;12.10;99.90;;;;;;5060295;28;20447;-70
2021/09/02 01:40:58;;;;;;;6.73;4.60;;;12.10;99.90;;;;;;5060610;28;20458;-71
2021/09/02 01:43:25;;;;;;;7.50;5.57;;;12.10;99.90;;;;;;5054657;28;20494;-71
2021/09/02 01:45:52;;;;;;;7.20;3.83;;;12.10;99.90;;;;;;5054699;28;20569;-71
2021/09/02 01:48:19;;;;;;;10.83;4.40;;;12.10;99.90;;;;;;5052622;28;20468;-70
2021/09/02 01:50:46;;;;;;;5.10;3.40;;;12.00;99.90;;;;;;5067058;28;20588;-71
2021/09/02 01:53:15;;;;;;;5.70;3.17;;;11.90;99.90;;;;;;5063322;28;20482;-71
2021/09/02 01:55:43;;;;;;;4.30;3.03;;;12.00;99.90;;;;;;5053209;28;20580;-68
2021/09/02 01:58:11;;;;;;;6.30;3.67;;;12.00;99.90;;;;;;5044279;28;20982;-70
2021/09/02 02:00:38;;;;;;;4.40;2.67;;;12.00;99.90;;;;;;5059098;28;20462;-69
2021/09/02 02:03:06;;;;;;;7.30;4.00;;;11.90;99.90;;;;;;5052517;28;20542;-68
2021/09/02 02:05:33;;;;;;;4.53;3.43;;;12.00;99.90;;;;;;5057125;28;21066;-70
2021/09/02 02:08:01;;;;;;;3.70;3.40;;;11.90;99.90;;;;;;5061823;28;20816;-69
2021/09/02 02:10:29;;;;;;;10.87;4.23;;;11.90;99.90;;;;;;5053753;28;20540;-69
2021/09/02 02:12:57;;;;;;;7.73;3.37;;;11.90;99.90;;;;;;5053480;28;20473;-68
2021/09/02 02:15:26;;;;;;;12.73;3.50;;;11.90;99.90;;;;;;5059576;28;20482;-69
2021/09/02 02:17:53;;;;;;;6.10;3.80;;;11.80;99.90;;;;;;5053160;28;21274;-69
2021/09/02 02:20:20;;;;;;;8.10;4.10;;;11.90;99.90;;;;;;5062844;28;20547;-70
2021/09/02 02:22:48;;;;;;;5.77;3.97;;;11.90;99.90;;;;;;5050526;28;21206;-68
2021/09/02 02:25:16;;;;;;;4.10;3.00;;;11.90;99.90;;;;;;5051875;28;20486;-70
2021/09/02 02:27:44;;;;;;;13.37;4.73;;;11.90;99.90;;;;;;5062273;28;20451;-70
2021/09/02 02:30:14;;;;;;;5.30;3.03;;;11.90;99.90;;;;;;5052234;28;20480;-69
2021/09/02 02:32:43;;;;;;;5.27;3.93;;;11.90;99.90;;;;;;5056600;28;20554;-69
2021/09/02 02:35:10;;;;;;;4.73;3.40;;;11.90;99.90;;;;;;5045986;28;20572;-70
2021/09/02 02:37:38;;;;;;;5.57;3.60;;;11.80;99.90;;;;;;5051284;28;20425;-70
2021/09/02 02:40:07;;;;;;;6.00;3.10;;;11.80;99.90;;;;;;5063260;28;20485;-70
2021/09/02 02:42:34;;;;;;;4.67;3.20;;;11.80;99.90;;;;;;5052624;28;21095;-69
2021/09/02 02:45:01;;;;;;;5.63;3.63;;;11.70;99.90;;;;;;5063055;28;20565;-70
2021/09/02 02:47:28;;;;;;;8.40;3.10;;;11.70;99.90;;;;;;5056093;28;21290;-70
2021/09/02 02:49:56;;;;;;;5.83;3.57;;;11.70;99.90;;;;;;5056654;28;20983;-70
2021/09/02 02:52:23;;;;;;;5.07;3.60;;;11.70;99.90;;;;;;5057724;28;20448;-70
2021/09/02 02:54:50;;;;;;;7.13;3.57;;;11.70;99.90;;;;;;5049989;28;20474;-70
2021/09/02 02:57:17;;;;;;;8.00;4.10;;;11.60;99.90;;;;;;5057502;28;20451;-70
2021/09/02 02:59:44;;;;;;;4.90;3.73;;;11.50;99.90;;;;;;5058184;28;20451;-70
2021/09/02 03:02:10;;;;;;;5.33;4.37;;;11.40;99.90;;;;;;5059730;28;20495;-69
2021/09/02 03:04:37;;;;;;;5.27;3.00;;;11.30;99.90;;;;;;5055554;28;20518;-70
2021/09/02 03:07:06;;;;;;;5.70;4.47;;;11.40;99.90;;;;;;5054910;28;20954;-70
2021/09/02 03:09:33;;;;;;;12.83;3.73;;;11.40;99.90;;;;;;5064336;28;21073;-70
2021/09/02 03:12:00;;;;;;;8.40;3.77;;;11.40;99.90;;;;;;5052964;28;20894;-70
2021/09/02 03:14:27;;;;;;;13.87;4.00;;;11.50;99.90;;;;;;5060307;28;20562;-70
2021/09/02 03:16:54;;;;;;;10.43;4.03;;;11.40;99.90;;;;;;5060065;28;20459;-70
2021/09/02 03:19:21;;;;;;;6.57;3.10;;;11.40;99.90;;;;;;5055692;28;20570;-70
2021/09/02 03:21:48;;;;;;;8.60;3.20;;;11.40;99.90;;;;;;5053274;28;21111;-70
2021/09/02 03:24:16;;;;;;;4.00;3.57;;;11.40;99.90;;;;;;5044958;28;20880;-70
2021/09/02 03:26:43;;;;;;;6.23;3.33;;;11.40;99.90;;;;;;5052813;28;20490;-70
2021/09/02 03:29:10;;;;;;;6.93;3.37;;;11.40;99.90;;;;;;5055014;28;20538;-69
2021/09/02 03:31:37;;;;;;;4.27;2.90;;;11.40;99.90;;;;;;5053361;28;20585;-69
2021/09/02 03:34:04;;;;;;;6.73;3.80;;;11.30;99.90;;;;;;5055638;28;20460;-69
2021/09/02 03:36:31;;;;;;;7.10;4.27;;;11.30;99.90;;;;;;5051401;28;20460;-69
2021/09/02 03:38:58;;;;;;;7.77;3.93;;;11.30;99.90;;;;;;5052466;28;20443;-69
2021/09/02 03:41:26;;;;;;;3.93;2.93;;;11.30;99.90;;;;;;5049784;28;20553;-69
2021/09/02 03:43:53;;;;;;;11.40;4.10;;;11.30;99.90;;;;;;5049578;28;20581;-68
2021/09/02 03:46:20;;;;;;;18.77;4.73;;;11.30;99.90;;;;;;5052219;28;20874;-68
2021/09/02 03:48:47;;;;;;;8.00;4.00;;;11.30;99.90;;;;;;5055160;28;20527;-70
2021/09/02 03:51:14;;;;;;;7.80;4.70;;;11.20;99.90;;;;;;5058025;28;20561;-69
2021/09/02 03:53:41;;;;;;;6.77;3.93;;;11.20;99.90;;;;;;5056078;28;20866;-70
2021/09/02 03:56:08;;;;;;;5.00;3.07;;;11.30;99.90;;;;;;5059994;28;20537;-69
2021/09/02 03:58:36;;;;;;;5.17;3.90;;;11.30;99.90;;;;;;5061637;28;20512;-70
2021/09/02 04:01:03;;;;;;;6.40;3.77;;;11.10;99.90;;;;;;5057351;28;20574;-70
2021/09/02 04:03:30;;;;;;;8.33;4.07;;;10.70;99.90;;;;;;5061009;28;20652;-70
2021/09/02 04:05:57;;;;;;;8.43;6.40;;;10.80;99.90;;;;;;5048923;28;21582;-69
2021/09/02 04:08:24;;;;;;;7.97;4.10;;;10.90;99.90;;;;;;5064048;28;20486;-70
2021/09/02 04:10:51;;;;;;;6.57;4.20;;;11.00;99.90;;;;;;5057839;28;20478;-71
2021/09/02 04:13:18;;;;;;;4.43;3.20;;;10.90;99.90;;;;;;5048971;28;21122;-71
2021/09/02 04:15:46;;;;;;;6.30;4.10;;;10.90;99.90;;;;;;5058034;28;20486;-70
2021/09/02 04:18:13;;;;;;;11.27;5.40;;;11.00;99.90;;;;;;5061626;28;20911;-70
2021/09/02 04:20:40;;;;;;;4.07;3.23;;;11.00;99.90;;;;;;5065318;28;20433;-70
2021/09/02 04:23:07;;;;;;;5.20;3.90;;;11.10;99.90;;;;;;5054395;28;20695;-70
2021/09/02 04:25:34;;;;;;;5.23;2.90;;;11.20;99.90;;;;;;5057106;28;21039;-70
2021/09/02 04:28:01;;;;;;;5.20;3.93;;;11.20;99.90;;;;;;5064106;28;21041;-71
2021/09/02 04:30:28;;;;;;;5.47;2.90;;;11.10;99.90;;;;;;5059252;28;20562;-70
2021/09/02 04:32:56;;;;;;;6.30;3.83;;;11.10;99.90;;;;;;5060952;28;21049;-68
2021/09/02 04:35:23;;;;;;;6.13;3.10;;;11.00;99.90;;;;;;5059532;28;20795;-69
2021/09/02 04:37:50;;;;;;;4.13;3.63;;;10.90;99.90;;;;;;5060100;28;20500;-69
2021/09/02 04:40:18;;;;;;;5.67;3.40;;;10.90;99.90;;;;;;5059413;28;20450;-69
2021/09/02 04:42:45;;;;;;;7.83;4.47;;;11.00;99.90;;;;;;5058862;28;20908;-68
2021/09/02 04:45:13;;;;;;;5.40;3.70;;;11.00;99.90;;;;;;5052811;28;20482;-69
2021/09/02 04:47:40;;;;;;;7.10;3.60;;;11.10;99.90;;;;;;5053049;28;20609;-70
2021/09/02 04:50:12;;;;;;;6.20;3.90;;;11.20;99.90;;;;;;5053829;28;25891;-71
2021/09/02 04:52:39;;;;;;;4.90;4.00;;;11.20;99.90;;;;;;5056761;28;20536;-70
2021/09/02 04:55:07;;;;;;;6.43;4.80;;;11.20;99.90;;;;;;5054806;28;20827;-69
2021/09/02 04:57:34;;;;;;;5.20;3.70;;;11.20;99.90;;;;;;5059758;28;20963;-70
2021/09/02 05:00:01;;;;;;;6.17;4.87;;;11.30;99.90;;;;;;5064263;28;20530;-70
2021/09/02 05:02:28;;;;;;;8.90;4.03;;;11.30;99.90;;;;;;5067567;28;20987;-70
2021/09/02 05:04:55;;;;;;;7.37;4.73;;;11.40;99.90;;;;;;5066495;28;20509;-71
2021/09/02 05:07:23;;;;;;;9.63;3.70;;;11.40;99.90;;;;;;5057713;28;20554;-69
2021/09/02 05:09:50;;;;;;;7.63;4.43;;;11.40;99.90;;;;;;5061191;28;20465;-69
2021/09/02 05:12:18;;;;;;;6.53;3.37;;;11.50;99.90;;;;;;5066611;28;20475;-70
2021/09/02 05:14:46;;;;;;;5.43;3.20;;;11.50;99.90;;;;;;5067815;28;20835;-70
2021/09/02 05:17:14;;;;;;;10.23;4.60;;;11.50;99.90;;;;;;5066457;28;21144;-70
2021/09/02 05:19:40;;;;;;;14.57;6.73;;;11.50;99.90;;;;;;5067999;28;20543;-69
2021/09/02 05:22:07;;;;;;;13.70;4.50;;;11.50;99.90;;;;;;5068820;28;20483;-69
2021/09/02 05:24:36;;;;;;;7.33;3.70;;;11.60;99.90;;;;;;5067652;28;20899;-68
2021/09/02 05:27:03;;;;;;;8.57;4.30;;;11.60;99.90;;;;;;5064939;28;20974;-70
2021/09/02 05:29:30;;;;;;;4.77;3.30;;;11.60;99.90;;;;;;5068004;28;20461;-69
2021/09/02 05:31:57;;;;;;;11.60;4.13;;;11.60;99.90;;;;;;5068826;28;20527;-69
2021/09/02 05:34:23;;;;;;;17.70;4.40;;;11.70;99.90;;;;;;5058971;28;20463;-69
2021/09/02 05:36:50;;;;;;;7.50;4.07;;;11.80;99.90;;;;;;5066299;28;20499;-70
2021/09/02 05:39:17;;;;;;;8.43;4.87;;;11.80;99.90;;;;;;5069177;28;20525;-69
2021/09/02 05:41:48;;;;;;;5.40;3.50;;;11.80;99.90;;;;;;5069917;28;20445;-68
2021/09/02 05:44:15;;;;;;;4.67;3.90;;;11.90;99.90;;;;;;5065604;28;20534;-70
2021/09/02 05:46:42;;;;;;;6.20;3.70;;;11.90;99.90;;;;;;5065446;28;20587;-69
2021/09/02 05:49:09;;;;;;;6.90;4.07;;;11.90;99.90;;;;;;5068858;28;20529;-68
2021/09/02 05:51:36;;;;;;;7.63;4.10;;;12.00;99.90;;;;;;5063985;28;20572;-69
2021/09/02 05:54:02;;;;;;;10.03;4.13;;;12.00;99.90;;;;;;5064106;28;20894;-70
2021/09/02 05:56:30;;;;;;;9.30;4.80;;;12.10;99.90;;;;;;5067015;28;20519;-69
2021/09/02 05:58:58;;;;;;;8.10;4.90;;;12.30;99.90;;;;;;5065760;28;20908;-69
2021/09/02 06:01:25;;;;;;;10.77;4.00;;;12.50;99.90;;;;;;5066267;28;20982;-69
2021/09/02 06:03:52;;;;;;;5.20;3.77;;;12.90;99.90;;;;;;5062741;28;20463;-69
2021/09/02 06:06:19;;;;;;;4.90;3.60;;;13.30;99.90;;;;;;5062285;28;20538;-70
2021/09/02 06:08:46;;;;;;;4.83;3.63;;;13.70;99.90;;;;;;5054148;28;20534;-69
2021/09/02 06:11:13;;;;;;;8.00;4.10;;;14.00;99.90;;;;;;5054946;28;20470;-70
2021/09/02 06:13:40;;;;;;;7.87;3.90;;;14.70;99.90;;;;;;5066888;28;21071;-69
2021/09/02 06:16:08;;;;;;;9.60;4.90;;;15.10;99.90;;;;;;5065586;28;20821;-69
2021/09/02 06:18:35;;;;;;;6.00;3.83;;;15.70;99.90;;;;;;5061775;28;20538;-70
2021/09/02 06:21:03;;;;;;;7.17;5.10;;;16.00;99.90;;;;;;5066917;28;20966;-70
2021/09/02 06:23:30;;;;;;;5.87;4.50;;;16.00;99.90;;;;;;5067486;28;20564;-71
2021/09/02 06:25:57;;;;;;;13.33;6.90;;;16.50;99.90;;;;;;5069388;28;20553;-70
2021/09/02 06:28:24;;;;;;;9.63;6.20;;;16.70;99.90;;;;;;5060971;28;20520;-71
2021/09/02 06:30:51;;;;;;;15.07;6.40;;;17.10;99.90;;;;;;5068919;28;20451;-70
2021/09/02 06:33:19;;;;;;;11.17;6.20;;;17.10;99.90;;;;;;5069194;28;20975;-68
2021/09/02 06:35:46;;;;;;;9.97;6.10;;;17.50;99.90;;;;;;5062927;28;20553;-69
2021/09/02 06:38:13;;;;;;;11.80;7.23;;;17.90;99.90;;;;;;5068996;28;20550;-70
2021/09/02 06:40:40;;;;;;;7.43;6.23;;;18.00;99.90;;;;;;5069063;28;20533;-68
2021/09/02 06:43:07;;;;;;;9.97;6.70;;;17.70;99.90;;;;;;5063920;28;20502;-69
2021/09/02 06:45:34;;;;;;;9.03;6.03;;;17.60;99.90;;;;;;5064849;28;20470;-69
2021/09/02 06:48:02;;;;;;;9.03;5.87;;;17.50;99.90;;;;;;5060991;28;20648;-69
2021/09/02 06:50:30;;;;;;;10.80;6.13;;;17.50;99.90;;;;;;5065097;28;20536;-70
2021/09/02 06:52:57;;;;;;;10.43;6.73;;;17.70;99.90;;;;;;5064511;28;20957;-68
2021/09/02 06:55:24;;;;;;;17.80;6.70;;;17.90;99.90;;;;;;5065998;28;20558;-69
2021/09/02 06:57:51;;;;;;;8.67;6.23;;;18.10;99.90;;;;;;5070398;28;20481;-69
2021/09/02 07:00:18;;;;;;;12.57;5.47;;;18.30;99.90;;;;;;5062311;28;20475;-69
2021/09/02 07:02:45;;;;;;;11.63;6.00;;;18.60;99.90;;;;;;5067972;28;20454;-69
2021/09/02 07:05:12;;;;;;;12.70;6.10;;;18.70;99.90;;;;;;5064694;28;20502;-70
2021/09/02 07:07:41;;;;;;;8.77;6.13;;;19.20;99.90;;;;;;5069427;28;21000;-69
2021/09/02 07:10:09;;;;;;;7.70;6.23;;;18.90;99.90;;;;;;5068036;28;20788;-68
2021/09/02 07:12:36;;;;;;;9.93;6.70;;;18.80;99.90;;;;;;5067863;28;20524;-68
2021/09/02 07:15:03;;;;;;;10.17;7.03;;;18.90;99.90;;;;;;5068065;28;20517;-69
2021/09/02 07:17:30;;;;;;;18.93;7.10;;;18.90;99.90;;;;;;5061954;28;20867;-69
2021/09/02 07:19:59;;;;;;;11.20;7.17;;;19.00;99.90;;;;;;5067721;28;20446;-69
2021/09/02 07:22:26;;;;;;;16.60;8.20;;;19.20;99.90;;;;;;5066891;28;20466;-69
2021/09/02 07:24:54;;;;;;;12.13;7.67;;;18.70;99.90;;;;;;5069652;28;20490;-69
2021/09/02 07:27:21;;;;;;;20.03;8.10;;;18.20;99.90;;;;;;5065472;28;20490;-69
2021/09/02 07:29:48;;;;;;;18.97;9.27;;;18.20;99.90;;;;;;5072367;28;20534;-69
2021/09/02 07:32:15;;;;;;;15.50;9.10;;;18.20;99.90;;;;;;5067930;28;20573;-69
2021/09/02 07:34:43;;;;;;;22.57;9.33;;;18.10;99.90;;;;;;5071077;28;20497;-69
2021/09/02 07:37:10;;;;;;;18.70;10.57;;;18.00;99.90;;;;;;5070752;28;20458;-68
2021/09/02 07:39:38;;;;;;;19.53;12.40;;;17.50;99.90;;;;;;5066132;28;20541;-69
2021/09/02 07:42:06;;;;;;;18.40;10.10;;;17.40;99.90;;;;;;5070688;28;20955;-69
2021/09/02 07:44:33;;;;;;;13.53;8.90;;;17.50;99.90;;;;;;5066834;28;20533;-69
2021/09/02 07:47:00;;;;;;;17.70;11.00;;;17.60;99.90;;;;;;5071761;28;20507;-69
2021/09/02 07:49:27;;;;;;;17.23;10.17;;;17.60;99.90;;;;;;5071310;28;20478;-69
2021/09/02 07:51:54;;;;;;;19.53;10.27;;;17.70;99.90;;;;;;5069507;28;20517;-70
2021/09/02 07:54:21;;;;;;;23.27;8.93;;;17.90;99.90;;;;;;5065673;28;20545;-68
2021/09/02 07:56:49;;;;;;;16.23;9.10;;;18.40;99.90;;;;;;5070067;28;20958;-69
2021/09/02 07:59:17;;;;;;;24.20;11.63;;;18.90;99.90;;;;;;5070311;28;21010;-68
2021/09/02 08:01:44;;;;;;;21.63;10.47;;;19.40;99.90;;;;;;5061854;28;20499;-68
2021/09/02 08:04:12;;;;;;;19.80;9.73;;;19.90;99.90;;;;;;5061386;28;20589;-69
2021/09/02 08:06:39;;;;;;;14.07;8.50;;;20.60;99.90;;;;;;5070026;28;20478;-69
2021/09/02 08:09:06;;;;;;;23.57;11.97;;;21.80;99.90;;;;;;5063850;28;20558;-70
2021/09/02 08:11:33;;;;;;;15.90;8.87;;;22.10;99.90;;;;;;5063282;28;20541;-70
2021/09/02 08:14:00;;;;;;;19.30;11.77;;;22.00;99.90;;;;;;5066155;28;20554;-69
2021/09/02 08:16:29;;;;;;;17.03;14.03;;;22.10;99.90;;;;;;5062149;28;20558;-69
2021/09/02 08:18:57;;;;;;;17.93;10.77;;;22.60;99.90;;;;;;5068201;28;20480;-69
2021/09/02 08:21:24;;;;;;;18.30;12.00;;;22.80;99.90;;;;;;5056984;28;20503;-69
2021/09/02 08:23:52;;;;;;;23.77;11.73;;;23.50;99.90;;;;;;5069335;28;20494;-69
2021/09/02 08:26:19;;;;;;;16.20;10.73;;;23.00;99.90;;;;;;5066546;28;20467;-69
2021/09/02 08:28:46;;;;;;;17.10;11.37;;;23.70;99.90;;;;;;5067420;28;20462;-69
2021/09/02 08:31:13;;;;;;;19.20;12.03;;;24.50;99.90;;;;;;5068845;28;20475;-69
2021/09/02 08:33:41;;;;;;;18.83;11.53;;;25.10;99.90;;;;;;5061084;28;20544;-69
2021/09/02 08:36:08;;;;;;;21.53;11.40;;;25.30;99.90;;;;;;5063490;28;20583;-69
2021/09/02 08:38:38;;;;;;;16.27;12.10;;;25.40;99.90;;;;;;5071898;28;20533;-69
2021/09/02 08:41:05;;;;;;;18.20;11.70;;;25.50;99.90;;;;;;5068961;28;20810;-70
2021/09/02 08:43:33;;;;;;;15.00;11.20;;;25.60;99.90;;;;;;5068542;28;20459;-69
2021/09/02 08:46:02;;;;;;;17.97;11.47;;;26.20;99.90;;;;;;5070552;28;20565;-69
2021/09/02 08:48:30;;;;;;;19.30;12.00;;;26.00;99.90;;;;;;5069474;28;20533;-70
2021/09/02 08:50:59;;;;;;;19.33;11.60;;;26.40;99.90;;;;;;5066296;28;20477;-70
2021/09/02 08:53:26;;;;;;;18.23;10.90;;;26.40;99.90;;;;;;5069483;28;20510;-69
2021/09/02 08:55:53;;;;;;;15.73;10.57;;;26.70;99.90;;;;;;5069978;28;20561;-69
2021/09/02 08:58:20;;;;;;;22.57;12.30;;;26.90;99.90;;;;;;5070236;28;20526;-69
2021/09/02 09:00:46;;;;;;;23.43;10.27;;;27.70;99.90;;;;;;5059931;28;21021;-69
2021/09/02 09:03:19;;;;;;;17.47;9.63;;;27.60;99.90;;;;;;5067270;28;20486;-69
2021/09/02 09:05:53;;;;;;;15.97;10.50;;;27.50;99.90;;;;;;5063715;28;20526;-69
2021/09/02 09:08:33;;;;;;;22.47;12.07;;;26.10;99.90;;;;;;5070966;28;20449;-69
2021/09/02 09:11:18;;;;;;;19.63;13.77;;;26.70;99.90;;;;;;5069989;28;21006;-69
2021/09/02 09:13:46;;;;;;;16.03;11.13;;;27.40;99.90;;;;;;5068878;28;20553;-69
2021/09/02 09:16:13;;;;;;;17.27;10.20;;;28.00;99.90;;;;;;5063556;28;20464;-69
2021/09/02 09:18:46;;;;;;;18.30;12.07;;;27.90;99.90;;;;;;5062058;28;20492;-69
2021/09/02 09:21:14;;;;;;;17.03;13.90;;;27.70;99.90;;;;;;5057782;28;20501;-69
2021/09/02 09:23:58;;;;;;;19.47;13.43;;;28.00;99.90;;;;;;5066976;28;20724;-69
2021/09/02 09:26:26;;;;;;;24.90;12.70;;;28.70;99.90;;;;;;5067051;28;20474;-69
2021/09/02 09:28:57;;;;;;;17.53;11.93;;;29.00;99.90;;;;;;5064338;28;20927;-70
2021/09/02 09:31:26;;;;;;;26.43;12.60;;;28.70;99.90;;;;;;5066757;28;20450;-70
2021/09/02 09:33:54;;;;;;;16.73;12.63;;;28.60;99.90;;;;;;5063334;28;20484;-69
2021/09/02 09:36:22;;;;;;;18.23;10.97;;;28.70;99.90;;;;;;5062847;28;20482;-70
2021/09/02 09:39:02;;;;;;;19.80;13.80;;;28.70;99.90;;;;;;5063505;28;20447;-69
2021/09/02 09:41:36;;;;;;;16.13;11.00;;;29.10;99.90;;;;;;5068559;28;20438;-70
2021/09/02 09:44:22;;;;;;;18.10;12.70;;;29.20;99.90;;;;;;5061447;28;20458;-70
2021/09/02 09:47:12;;;;;;;19.53;11.67;;;29.00;99.90;;;;;;5064791;28;20458;-69
2021/09/02 09:49:50;;;;;;;18.57;11.83;;;28.60;99.90;;;;;;5068656;28;20505;-69
2021/09/02 09:52:19;;;;;;;23.03;12.43;;;28.80;99.90;;;;;;5065815;28;20493;-69
2021/09/02 09:54:47;;;;;;;19.93;12.90;;;28.70;99.90;;;;;;5069532;28;20514;-70
2021/09/02 09:57:15;;;;;;;18.30;12.43;;;28.80;99.90;;;;;;5070126;28;20472;-70
2021/09/02 09:59:43;;;;;;;17.63;11.47;;;29.00;99.90;;;;;;5069780;28;20446;-70
2021/09/02 10:02:11;;;;;;;18.67;11.77;;;28.60;99.90;;;;;;5070130;28;20533;-70
2021/09/02 10:04:39;;;;;;;18.50;13.70;;;28.80;99.90;;;;;;5064424;28;20550;-70
2021/09/02 10:07:06;;;;;;;22.87;14.13;;;28.40;99.90;;;;;;5060782;28;20545;-69
2021/09/02 10:09:34;;;;;;;24.83;14.47;;;27.80;99.90;;;;;;5063724;28;20566;-70
2021/09/02 10:12:04;;;;;;;21.13;14.80;;;28.00;99.90;;;;;;5061756;28;20461;-70
2021/09/02 10:14:31;;;;;;;20.53;12.90;;;27.90;99.90;;;;;;5064686;28;20837;-69
2021/09/02 10:17:00;;;;;;;19.87;14.10;;;28.00;99.90;;;;;;5063487;28;20900;-70
2021/09/02 10:19:28;;;;;;;20.57;13.30;;;28.30;99.90;;;;;;5063857;28;20482;-70
2021/09/02 10:21:58;;;;;;;22.13;12.87;;;28.10;99.90;;;;;;5060335;28;20530;-70
2021/09/02 10:24:37;;;;;;;18.57;11.97;;;27.20;99.90;;;;;;5063604;28;20959;-69
2021/09/02 10:27:37;;;;;;;18.40;12.10;;;26.80;99.90;;;;;;5069600;28;20443;-69
2021/09/02 10:30:24;;;;;;;18.00;13.33;;;27.90;99.90;;;;;;5064087;28;20435;-69
2021/09/02 10:32:52;;;;;;;27.33;12.90;;;27.90;99.90;;;;;;5063149;28;21157;-70
2021/09/02 10:35:35;;;;;;;21.57;12.50;;;27.90;99.90;;;;;;5060377;28;20893;-70
2021/09/02 10:38:04;;;;;;;14.90;10.60;;;27.80;99.90;;;;;;5058138;28;20462;-70
2021/09/02 10:40:50;;;;;;;21.07;10.50;;;28.30;99.90;;;;;;5070084;28;20755;-70
2021/09/02 10:43:50;;;;;;;18.47;11.47;;;29.20;99.90;;;;;;5066285;28;20459;-70
2021/09/02 10:46:31;;;;;;;15.97;11.50;;;29.40;99.90;;;;;;5063444;28;20503;-69
2021/09/02 10:49:18;;;;;;;20.10;11.57;;;28.90;99.90;;;;;;5064675;28;20469;-69
2021/09/02 10:51:48;;;;;;;21.00;13.30;;;29.10;99.90;;;;;;5060166;28;20511;-69
2021/09/02 10:54:18;;;;;;;15.00;11.80;;;28.80;99.90;;;;;;5061051;28;20490;-69
2021/09/02 10:56:54;;;;;;;19.40;13.33;;;28.40;99.90;;;;;;5062602;28;20483;-69
2021/09/02 10:59:50;;;;;;;17.90;11.27;;;27.60;99.90;;;;;;5067647;28;20457;-69
2021/09/02 11:02:42;;;;;;;16.40;10.60;;;27.40;99.90;;;;;;5018008;28;20564;-70
2021/09/02 11:05:11;;;;;;;19.30;10.87;;;27.30;99.90;;;;;;5064901;28;20486;-70
2021/09/02 11:07:42;;;;;;;20.90;11.77;;;28.00;99.90;;;;;;5057163;28;20453;-70
2021/09/02 11:10:12;;;;;;;19.23;13.00;;;28.40;99.90;;;;;;5063581;28;20497;-69
2021/09/02 11:12:40;;;;;;;19.50;12.37;;;28.10;99.90;;;;;;5065030;28;20603;-69
2021/09/02 11:15:10;;;;;;;19.07;10.83;;;28.00;99.90;;;;;;5063698;28;20482;-69
2021/09/02 11:17:37;;;;;;;25.67;12.77;;;29.00;99.90;;;;;;5066037;28;20482;-69
2021/09/02 11:20:20;;;;;;;15.63;10.73;;;29.00;99.90;;;;;;5061401;28;20962;-70
2021/09/02 11:22:47;;;;;;;18.77;12.87;;;29.40;99.90;;;;;;5061119;28;20446;-69
2021/09/02 11:25:15;;;;;;;19.23;11.17;;;29.60;99.90;;;;;;5058577;28;20561;-70
2021/09/02 11:27:42;;;;;;;20.97;12.10;;;30.40;99.90;;;;;;5065906;28;20489;-70
2021/09/02 11:30:15;;;;;;;22.27;12.27;;;31.30;99.90;;;;;;5065313;28;20450;-69
2021/09/02 11:32:43;;;;;;;16.80;10.40;;;31.00;99.90;;;;;;5064508;28;20664;-71
2021/09/02 11:35:11;;;;;;;19.20;10.80;;;30.90;99.90;;;;;;5063542;28;20657;-70
2021/09/02 11:37:40;;;;;;;18.50;11.53;;;31.40;99.90;;;;;;5065249;28;20446;-70
2021/09/02 11:40:09;;;;;;;17.40;10.97;;;31.30;99.90;;;;;;5067993;28;20478;-70
2021/09/02 11:42:36;;;;;;;20.17;12.23;;;30.40;99.90;;;;;;5058735;28;20547;-68
2021/09/02 11:45:04;;;;;;;16.10;11.07;;;30.30;99.90;;;;;;5066866;28;20526;-70
2021/09/02 11:47:37;;;;;;;19.90;12.60;;;31.20;99.90;;;;;;5065525;28;20809;-69
2021/09/02 11:50:05;;;;;;;24.10;12.40;;;32.00;99.90;;;;;;5062624;28;20847;-69
2021/09/02 11:52:40;;;;;;;20.70;11.97;;;32.10;99.90;;;;;;5065512;28;20485;-70
2021/09/02 11:55:08;;;;;;;20.00;12.20;;;31.90;99.90;;;;;;5064046;28;20516;-70
2021/09/02 11:57:35;;;;;;;18.83;11.63;;;31.50;99.90;;;;;;5052160;28;21020;-68
2021/09/02 12:00:02;;;;;;;18.03;12.20;;;31.70;99.90;;;;;;5061480;28;20442;-70
2021/09/02 12:02:29;;;;;;;19.37;12.20;;;31.80;99.90;;;;;;5067425;28;20434;-70
2021/09/02 12:04:58;;;;;;;18.77;11.03;;;31.30;99.90;;;;;;5063525;28;21074;-69
2021/09/02 12:07:25;;;;;;;21.70;12.23;;;31.00;99.90;;;;;;5064358;28;20521;-68
2021/09/02 12:09:53;;;;;;;18.37;11.03;;;31.30;99.90;;;;;;5064403;28;20489;-70
2021/09/02 12:12:32;;;;;;;15.67;10.37;;;32.10;99.60;;;;;;5066510;28;21010;-70
2021/09/02 12:15:00;;;;;;;20.77;11.60;;;31.90;98.80;;;;;;5069177;28;20532;-70
2021/09/02 12:17:35;;;;;;;17.50;13.23;;;31.40;99.90;;;;;;5070358;28;20482;-70
2021/09/02 12:20:05;;;;;;;14.70;11.40;;;32.30;98.70;;;;;;5063524;28;20526;-70
2021/09/02 12:22:34;;;;;;;18.30;12.30;;;32.60;98.00;;;;;;5064968;28;20839;-70
2021/09/02 12:25:13;;;;;;;16.43;11.40;;;31.50;98.90;;;;;;5064950;28;20826;-69
2021/09/02 12:27:48;;;;;;;18.67;12.20;;;31.90;98.80;;;;;;5067316;28;20439;-70
2021/09/02 12:30:16;;;;;;;20.37;12.13;;;33.30;96.70;;;;;;5059953;28;20479;-71
2021/09/02 12:32:43;;;;;;;14.50;10.43;;;33.00;97.10;;;;;;5068070;28;21265;-71
2021/09/02 12:35:18;;;;;;;20.20;10.97;;;33.20;96.00;;;;;;5061594;28;20590;-69
2021/09/02 12:37:46;;;;;;;14.37;9.97;;;33.30;95.80;;;;;;5069021;28;20504;-70
2021/09/02 12:40:16;;;;;;;13.80;8.80;;;33.40;95.50;;;;;;5063497;28;20503;-70
2021/09/02 12:42:44;;;;;;;16.60;9.50;;;32.90;94.90;;;;;;5065747;28;20545;-70
2021/09/02 12:45:17;;;;;;;16.77;10.03;;;33.30;93.60;;;;;;5061990;28;20501;-70